createdAt,value
2022-11-07T00:00:38.243Z,10.80
2022-11-07T00:03:05.000Z,10.90
2022-11-07T00:05:31.805Z,10.80
2022-11-07T00:07:58.576Z,10.80
2022-11-07T00:10:25.288Z,10.90
2022-11-07T00:12:52.045Z,10.90
2022-11-07T00:15:18.981Z,10.90
2022-11-07T00:17:45.736Z,10.90
2022-11-07T00:20:12.562Z,10.90
2022-11-07T00:22:39.326Z,11.00
2022-11-07T00:25:06.627Z,11.00
2022-11-07T00:27:33.531Z,11.00
2022-11-07T00:30:00.301Z,10.90
2022-11-07T00:32:27.016Z,10.90
2022-11-07T00:34:55.780Z,10.90
2022-11-07T00:37:22.515Z,11.00
2022-11-07T00:39:49.245Z,11.00
2022-11-07T00:42:16.390Z,11.00
2022-11-07T00:44:43.137Z,11.00
2022-11-07T00:47:09.879Z,11.00
2022-11-07T00:49:36.620Z,11.10
2022-11-07T00:52:03.422Z,11.10
2022-11-07T00:54:30.173Z,11.10
2022-11-07T00:56:56.881Z,11.20
2022-11-07T00:59:23.590Z,11.20
2022-11-07T01:01:50.390Z,11.20
2022-11-07T01:04:35.688Z,11.30
2022-11-07T01:07:02.499Z,11.30
2022-11-07T01:09:29.206Z,11.30
2022-11-07T01:11:55.906Z,11.30
2022-11-07T01:14:22.978Z,11.40
2022-11-07T01:16:50.023Z,11.40
2022-11-07T01:19:17.054Z,11.40
2022-11-07T01:21:44.079Z,11.40
2022-11-07T01:24:11.687Z,11.40
2022-11-07T01:26:38.555Z,11.50
2022-11-07T01:29:05.367Z,11.50
2022-11-07T01:31:32.081Z,11.50
2022-11-07T01:33:59.606Z,11.50
2022-11-07T01:36:26.516Z,11.50
2022-11-07T01:38:53.284Z,11.50
2022-11-07T01:41:24.172Z,11.50
2022-11-07T01:43:54.082Z,11.50
2022-11-07T01:46:21.700Z,11.50
2022-11-07T01:49:00.708Z,11.50
2022-11-07T01:51:27.427Z,11.50
2022-11-07T01:53:58.287Z,11.50
2022-11-07T01:56:26.466Z,11.50
2022-11-07T01:58:53.328Z,11.50
2022-11-07T02:01:20.137Z,11.50
2022-11-07T02:03:47.051Z,11.60
2022-11-07T02:06:26.961Z,11.60
2022-11-07T02:08:53.900Z,11.60
2022-11-07T02:11:20.693Z,11.60
2022-11-07T02:13:47.524Z,11.60
2022-11-07T02:16:14.248Z,11.60
2022-11-07T02:18:41.428Z,11.60
2022-11-07T02:21:35.728Z,11.70
2022-11-07T02:24:08.551Z,11.70
2022-11-07T02:26:36.181Z,11.70
2022-11-07T02:29:05.518Z,11.70
2022-11-07T02:31:32.238Z,11.70
2022-11-07T02:33:58.984Z,11.70
2022-11-07T02:36:26.079Z,11.70
2022-11-07T02:38:57.566Z,11.70
2022-11-07T02:41:30.313Z,11.80
2022-11-07T02:43:59.014Z,11.80
2022-11-07T02:46:26.555Z,11.70
2022-11-07T02:48:57.500Z,11.70
2022-11-07T02:51:24.472Z,11.70
2022-11-07T02:53:51.733Z,11.80
2022-11-07T02:56:18.697Z,11.70
2022-11-07T02:58:45.655Z,11.80
2022-11-07T03:01:12.502Z,11.80
2022-11-07T03:03:43.610Z,11.80
2022-11-07T03:06:11.870Z,11.80
2022-11-07T03:08:38.593Z,11.80
2022-11-07T03:11:05.738Z,11.80
2022-11-07T03:13:32.443Z,11.80
2022-11-07T03:15:59.226Z,11.70
2022-11-07T03:18:26.071Z,11.80
2022-11-07T03:20:52.794Z,11.70
2022-11-07T03:23:19.541Z,11.70
2022-11-07T03:25:46.283Z,11.70
2022-11-07T03:28:12.969Z,11.70
2022-11-07T03:30:39.646Z,11.70
2022-11-07T03:33:06.353Z,11.70
2022-11-07T03:35:33.022Z,11.80
2022-11-07T03:37:59.690Z,11.70
2022-11-07T03:40:26.445Z,11.70
2022-11-07T03:42:53.249Z,11.70
2022-11-07T03:45:20.040Z,11.70
2022-11-07T03:47:46.937Z,11.70
2022-11-07T03:50:15.972Z,11.70
2022-11-07T03:52:42.925Z,11.80
2022-11-07T03:55:10.310Z,11.80
2022-11-07T03:57:37.283Z,11.80
2022-11-07T04:00:05.298Z,11.80
2022-11-07T04:02:32.133Z,11.80
2022-11-07T04:04:58.975Z,11.80
2022-11-07T04:07:25.716Z,11.80
2022-11-07T04:09:52.416Z,11.80
2022-11-07T04:12:37.603Z,11.90
2022-11-07T04:15:22.960Z,11.80
2022-11-07T04:17:49.670Z,11.80
2022-11-07T04:20:16.379Z,11.80
2022-11-07T04:22:43.108Z,11.90
2022-11-07T04:25:10.162Z,11.90
2022-11-07T04:27:43.094Z,11.90
2022-11-07T04:30:22.499Z,11.90
2022-11-07T04:32:53.837Z,11.90
2022-11-07T04:35:21.899Z,11.90
2022-11-07T04:37:48.948Z,11.90
2022-11-07T04:40:15.843Z,11.90
2022-11-07T04:42:43.015Z,11.90
2022-11-07T04:45:10.349Z,12.00
2022-11-07T04:47:40.430Z,11.90
2022-11-07T04:50:09.330Z,12.00
2022-11-07T04:52:36.119Z,12.00
2022-11-07T04:55:02.948Z,12.00
2022-11-07T04:57:29.686Z,12.00
2022-11-07T04:59:56.376Z,12.10
2022-11-07T05:02:24.992Z,12.10
2022-11-07T05:04:52.589Z,12.10
2022-11-07T05:07:19.620Z,12.10
2022-11-07T05:09:46.396Z,12.10
2022-11-07T05:12:13.206Z,12.10
2022-11-07T05:14:39.918Z,12.10
2022-11-07T05:17:06.628Z,12.20
2022-11-07T05:19:33.319Z,12.20
2022-11-07T05:22:18.631Z,12.20
2022-11-07T05:24:45.388Z,12.20
2022-11-07T05:27:19.084Z,12.30
2022-11-07T05:29:45.993Z,12.30
2022-11-07T05:32:13.054Z,12.30
2022-11-07T05:34:39.897Z,12.30
2022-11-07T05:37:11.605Z,12.30
2022-11-07T05:39:38.383Z,12.30
2022-11-07T05:42:05.276Z,12.30
2022-11-07T05:44:32.017Z,12.30
2022-11-07T05:46:58.839Z,12.30
2022-11-07T05:49:25.924Z,12.30
2022-11-07T05:51:52.912Z,12.30
2022-11-07T05:54:19.769Z,12.30
2022-11-07T05:56:46.497Z,12.30
2022-11-07T05:59:13.845Z,12.30
2022-11-07T06:01:40.676Z,12.30
2022-11-07T06:04:08.147Z,12.30
2022-11-07T06:06:34.919Z,12.20
2022-11-07T06:09:01.581Z,12.30
2022-11-07T06:11:28.294Z,12.30
2022-11-07T06:13:55.062Z,12.30
2022-11-07T06:16:21.746Z,12.30
2022-11-07T06:18:48.875Z,12.30
2022-11-07T06:21:17.298Z,12.20
2022-11-07T06:23:46.761Z,12.20
2022-11-07T06:26:13.531Z,12.20
2022-11-07T06:28:40.264Z,12.20
2022-11-07T06:31:07.001Z,12.20
2022-11-07T06:33:33.712Z,12.20
2022-11-07T06:36:10.953Z,12.20
2022-11-07T06:38:38.352Z,12.20
2022-11-07T06:41:09.745Z,12.20
2022-11-07T06:43:37.038Z,12.20
2022-11-07T06:46:08.542Z,12.10
2022-11-07T06:48:35.229Z,12.20
2022-11-07T06:51:02.925Z,12.10
2022-11-07T06:53:29.712Z,12.10
2022-11-07T06:55:56.891Z,12.10
2022-11-07T06:58:23.803Z,12.10
2022-11-07T07:00:50.644Z,12.20
2022-11-07T07:03:17.808Z,12.20
2022-11-07T07:05:44.770Z,12.20
2022-11-07T07:08:12.337Z,12.20
2022-11-07T07:10:40.912Z,12.30
2022-11-07T07:13:07.699Z,12.30
2022-11-07T07:15:49.485Z,12.30
2022-11-07T07:18:17.303Z,12.40
2022-11-07T07:20:44.079Z,12.40
2022-11-07T07:23:10.986Z,12.40
2022-11-07T07:25:37.738Z,12.50
2022-11-07T07:28:04.478Z,12.50
2022-11-07T07:30:31.252Z,12.60
2022-11-07T07:32:57.944Z,12.60
2022-11-07T07:35:24.798Z,12.70
2022-11-07T07:37:54.665Z,12.70
2022-11-07T07:40:21.571Z,12.80
2022-11-07T07:42:48.357Z,12.80
2022-11-07T07:45:15.514Z,12.90
2022-11-07T07:47:42.360Z,12.90
2022-11-07T07:50:10.449Z,13.00
2022-11-07T07:52:37.280Z,13.00
2022-11-07T07:55:04.642Z,13.00
2022-11-07T07:57:31.379Z,13.00
2022-11-07T07:59:58.126Z,13.10
2022-11-07T08:02:24.943Z,13.10
2022-11-07T08:04:51.807Z,13.10
2022-11-07T08:07:18.568Z,13.10
2022-11-07T08:09:45.313Z,13.20
2022-11-07T08:12:13.245Z,13.20
2022-11-07T08:14:40.113Z,13.20
2022-11-07T08:17:07.018Z,13.20
2022-11-07T08:19:33.765Z,13.20
2022-11-07T08:22:00.803Z,13.30
2022-11-07T08:24:27.625Z,13.30
2022-11-07T08:26:54.394Z,13.30
2022-11-07T08:29:21.178Z,13.30
2022-11-07T08:31:50.595Z,13.30
2022-11-07T08:34:18.598Z,13.40
2022-11-07T08:36:45.352Z,13.40
2022-11-07T08:39:12.151Z,13.40
2022-11-07T08:41:38.838Z,13.40
2022-11-07T08:44:06.217Z,13.40
2022-11-07T08:46:32.901Z,13.40
2022-11-07T08:48:59.683Z,13.40
2022-11-07T08:51:26.453Z,13.50
2022-11-07T08:53:53.209Z,13.50
2022-11-07T08:56:19.956Z,13.50
2022-11-07T08:58:46.707Z,13.40
2022-11-07T09:01:13.459Z,13.50
2022-11-07T09:03:58.329Z,13.50
2022-11-07T09:06:25.516Z,13.50
2022-11-07T09:08:52.256Z,13.60
2022-11-07T09:11:19.291Z,13.60
2022-11-07T09:13:51.862Z,13.70
2022-11-07T09:16:24.606Z,13.80
2022-11-07T09:18:52.204Z,13.80
2022-11-07T09:21:22.374Z,13.90
2022-11-07T09:23:50.339Z,13.90
2022-11-07T09:26:18.110Z,14.00
2022-11-07T09:28:49.970Z,14.00
2022-11-07T09:31:19.049Z,14.10
2022-11-07T09:33:45.799Z,14.10
2022-11-07T09:36:13.858Z,14.10
2022-11-07T09:38:41.191Z,14.10
2022-11-07T09:41:36.923Z,14.20
2022-11-07T09:44:42.924Z,14.20
2022-11-07T09:47:17.177Z,14.30
2022-11-07T09:49:44.727Z,14.30
2022-11-07T09:52:55.005Z,14.30
2022-11-07T09:55:25.907Z,14.40
2022-11-07T09:57:54.585Z,14.40
2022-11-07T10:00:22.014Z,14.40
2022-11-07T10:02:59.300Z,14.40
2022-11-07T10:05:41.209Z,14.30
2022-11-07T10:08:17.503Z,14.30
2022-11-07T10:11:01.483Z,14.20
2022-11-07T10:13:46.362Z,14.20
2022-11-07T10:16:30.521Z,14.10
2022-11-07T10:19:09.485Z,14.10
2022-11-07T10:21:52.081Z,14.10
2022-11-07T10:24:46.497Z,14.10
2022-11-07T10:27:13.595Z,14.10
2022-11-07T10:29:46.993Z,14.10
2022-11-07T10:32:35.665Z,14.10
2022-11-07T10:35:22.992Z,14.20
2022-11-07T10:38:00.775Z,14.20
2022-11-07T10:40:39.022Z,14.20
2022-11-07T10:43:07.481Z,14.20
2022-11-07T10:45:34.281Z,14.30
2022-11-07T10:48:04.981Z,14.30
2022-11-07T10:50:31.824Z,14.30
2022-11-07T10:53:09.819Z,14.30
2022-11-07T10:55:45.466Z,14.30
2022-11-07T10:58:21.029Z,14.30
2022-11-07T11:01:17.473Z,14.30
2022-11-07T11:03:45.998Z,14.40
2022-11-07T11:06:18.678Z,14.50
2022-11-07T11:08:46.419Z,14.50
2022-11-07T11:11:29.316Z,14.50
2022-11-07T11:14:09.058Z,14.50
2022-11-07T11:16:37.613Z,14.50
2022-11-07T11:19:04.515Z,14.50
2022-11-07T11:21:41.798Z,14.50
2022-11-07T11:24:25.331Z,14.50
2022-11-07T11:26:52.350Z,14.50
2022-11-07T11:29:52.985Z,14.50
2022-11-07T11:32:36.209Z,14.60
2022-11-07T11:35:06.528Z,14.70
2022-11-07T11:37:36.635Z,14.70
2022-11-07T11:40:04.024Z,14.70
2022-11-07T11:43:00.970Z,14.70
2022-11-07T11:45:35.798Z,14.80
2022-11-07T11:48:20.533Z,14.80
2022-11-07T11:50:52.863Z,14.80
2022-11-07T11:53:20.607Z,14.80
2022-11-07T11:56:36.529Z,14.90
2022-11-07T11:59:03.340Z,14.80
2022-11-07T12:01:53.245Z,14.70
2022-11-07T12:04:56.835Z,14.70
2022-11-07T12:07:59.173Z,14.70
2022-11-07T12:10:27.420Z,14.70
2022-11-07T12:13:11.452Z,14.80
2022-11-07T12:15:45.822Z,14.80
2022-11-07T12:18:23.784Z,14.90
2022-11-07T12:21:11.606Z,14.90
2022-11-07T12:23:56.283Z,14.90
2022-11-07T12:26:47.222Z,14.90
2022-11-07T12:29:20.261Z,14.70
2022-11-07T12:32:13.589Z,14.70
2022-11-07T12:35:08.164Z,14.70
2022-11-07T12:37:57.342Z,14.70
2022-11-07T12:40:34.533Z,14.60
2022-11-07T12:43:31.919Z,14.50
2022-11-07T12:46:09.789Z,14.50
2022-11-07T12:48:41.047Z,14.50
2022-11-07T12:51:38.746Z,14.50
2022-11-07T12:54:26.755Z,14.50
2022-11-07T12:56:53.495Z,14.60
2022-11-07T12:59:27.498Z,14.70
2022-11-07T13:02:33.411Z,14.70
2022-11-07T13:05:44.586Z,14.80
2022-11-07T13:08:17.616Z,14.90
2022-11-07T13:10:47.254Z,15.00
2022-11-07T13:13:25.061Z,15.10
2022-11-07T13:16:14.431Z,15.20
2022-11-07T13:18:39.018Z,15.20
2022-11-07T13:21:06.481Z,15.20
2022-11-07T13:23:33.592Z,15.30
2022-11-07T13:26:06.975Z,15.30
2022-11-07T13:28:57.703Z,15.40
2022-11-07T13:31:34.899Z,15.40
2022-11-07T13:34:19.877Z,15.50
2022-11-07T13:36:47.551Z,15.50
2022-11-07T13:39:14.292Z,15.50
2022-11-07T13:41:42.072Z,15.50
2022-11-07T13:44:26.561Z,15.50
2022-11-07T13:46:54.547Z,15.50
2022-11-07T13:49:27.163Z,15.50
2022-11-07T13:51:58.068Z,15.50
2022-11-07T13:54:44.551Z,15.50
2022-11-07T13:58:00.552Z,15.40
2022-11-07T14:00:27.426Z,15.50
2022-11-07T14:02:58.386Z,15.40
2022-11-07T14:05:35.013Z,15.40
2022-11-07T14:08:08.049Z,15.30
2022-11-07T14:10:39.233Z,15.30
2022-11-07T14:13:08.197Z,15.30
2022-11-07T14:15:35.742Z,15.20
2022-11-07T14:18:02.897Z,15.30
2022-11-07T14:20:30.266Z,15.30
2022-11-07T14:23:00.422Z,15.30
2022-11-07T14:25:35.458Z,15.20
2022-11-07T14:28:02.251Z,15.00
2022-11-07T14:30:29.823Z,14.90
2022-11-07T14:32:58.742Z,14.90
2022-11-07T14:35:30.412Z,14.80
2022-11-07T14:37:58.386Z,14.80
2022-11-07T14:40:25.468Z,14.80
2022-11-07T14:42:52.568Z,14.80
2022-11-07T14:45:33.288Z,14.80
2022-11-07T14:48:09.259Z,14.80
2022-11-07T14:50:38.439Z,14.80
2022-11-07T14:53:10.666Z,14.90
2022-11-07T14:55:38.756Z,14.90
2022-11-07T14:58:06.199Z,14.90
2022-11-07T15:00:33.478Z,15.00
2022-11-07T15:03:00.550Z,15.00
2022-11-07T15:05:31.145Z,15.00
2022-11-07T15:07:59.327Z,15.00
2022-11-07T15:10:34.421Z,15.00
2022-11-07T15:13:05.737Z,15.00
2022-11-07T15:15:36.041Z,15.00
2022-11-07T15:18:06.571Z,15.00
2022-11-07T15:20:39.815Z,15.00
2022-11-07T15:23:12.753Z,15.00
2022-11-07T15:25:56.260Z,14.90
2022-11-07T15:28:30.575Z,15.00
2022-11-07T15:30:59.152Z,14.90
2022-11-07T15:33:26.800Z,14.90
2022-11-07T15:35:56.235Z,14.90
2022-11-07T15:38:27.301Z,14.90
2022-11-07T15:40:56.672Z,14.90
2022-11-07T15:43:23.567Z,14.90
2022-11-07T15:45:51.152Z,14.90
2022-11-07T15:48:20.265Z,14.90
2022-11-07T15:50:47.416Z,14.90
2022-11-07T15:53:22.861Z,14.80
2022-11-07T15:55:54.151Z,14.80
2022-11-07T15:58:44.337Z,14.80
2022-11-07T16:01:11.232Z,14.80
2022-11-07T16:03:38.112Z,14.80
2022-11-07T16:06:17.611Z,14.80
2022-11-07T16:08:46.956Z,14.90
2022-11-07T16:11:13.672Z,14.80
2022-11-07T16:13:40.516Z,14.50
2022-11-07T16:16:07.753Z,14.40
2022-11-07T16:18:42.844Z,14.30
2022-11-07T16:21:09.611Z,14.20
2022-11-07T16:23:36.352Z,14.20
2022-11-07T16:26:03.164Z,14.20
2022-11-07T16:28:33.833Z,14.20
2022-11-07T16:31:01.006Z,14.20
2022-11-07T16:33:28.027Z,14.20
2022-11-07T16:36:02.616Z,14.20
2022-11-07T16:38:34.989Z,14.20
2022-11-07T16:41:02.286Z,14.20
2022-11-07T16:43:34.810Z,14.10
2022-11-07T16:46:01.680Z,14.10
2022-11-07T16:48:29.669Z,14.10
2022-11-07T16:50:56.780Z,14.00
2022-11-07T16:53:24.079Z,14.00
2022-11-07T16:55:54.142Z,14.00
2022-11-07T16:58:28.711Z,13.90
2022-11-07T17:00:56.956Z,13.90
2022-11-07T17:03:24.515Z,13.80
2022-11-07T17:05:52.894Z,13.80
2022-11-07T17:08:22.239Z,13.80
2022-11-07T17:10:49.179Z,13.80
2022-11-07T17:13:15.953Z,13.80
2022-11-07T17:15:42.736Z,13.80
2022-11-07T17:18:22.787Z,13.80
2022-11-07T17:20:51.330Z,13.80
2022-11-07T17:23:18.890Z,13.80
2022-11-07T17:25:49.194Z,13.80
2022-11-07T17:28:16.145Z,13.80
2022-11-07T17:30:43.177Z,13.80
2022-11-07T17:33:09.979Z,13.80
2022-11-07T17:35:37.209Z,13.80
2022-11-07T17:38:04.014Z,13.80
2022-11-07T17:40:31.851Z,13.80
2022-11-07T17:42:58.796Z,13.80
2022-11-07T17:45:25.668Z,13.80
2022-11-07T17:47:52.672Z,13.80
2022-11-07T17:50:20.405Z,13.80
2022-11-07T17:52:47.393Z,13.80
2022-11-07T17:55:14.439Z,13.80
2022-11-07T17:57:42.438Z,13.90
2022-11-07T18:00:18.366Z,13.90
2022-11-07T18:02:46.261Z,13.90
2022-11-07T18:05:15.008Z,13.90
2022-11-07T18:07:41.868Z,13.90
2022-11-07T18:10:09.086Z,14.00
2022-11-07T18:12:35.899Z,14.00
2022-11-07T18:15:02.725Z,14.00
2022-11-07T18:17:29.476Z,14.00
2022-11-07T18:19:56.232Z,14.10
2022-11-07T18:22:22.934Z,14.10
2022-11-07T18:24:49.712Z,14.20
2022-11-07T18:27:16.774Z,14.20
2022-11-07T18:29:43.536Z,14.20
2022-11-07T18:32:10.320Z,14.30
2022-11-07T18:34:37.236Z,14.30
2022-11-07T18:37:04.101Z,14.30
2022-11-07T18:39:30.886Z,14.30
2022-11-07T18:41:58.196Z,14.30
2022-11-07T18:44:25.349Z,14.20
2022-11-07T18:46:52.373Z,14.20
2022-11-07T18:49:19.642Z,14.30
2022-11-07T18:51:46.747Z,14.20
2022-11-07T18:54:13.813Z,14.30
2022-11-07T18:56:41.109Z,14.30
2022-11-07T18:59:07.941Z,14.30
2022-11-07T19:01:34.886Z,14.30
2022-11-07T19:04:05.629Z,14.40
2022-11-07T19:06:32.515Z,14.40
2022-11-07T19:08:59.358Z,14.40
2022-11-07T19:11:29.346Z,14.60
2022-11-07T19:13:57.182Z,14.50
2022-11-07T19:16:23.908Z,14.50
2022-11-07T19:18:50.862Z,14.50
2022-11-07T19:21:19.870Z,14.60
2022-11-07T19:23:47.124Z,14.60
2022-11-07T19:26:14.068Z,14.60
2022-11-07T19:28:40.915Z,14.60
2022-11-07T19:31:10.759Z,14.60
2022-11-07T19:33:37.583Z,14.60
2022-11-07T19:36:08.907Z,14.60
2022-11-07T19:38:35.673Z,14.60
2022-11-07T19:41:03.763Z,14.60
2022-11-07T19:43:32.046Z,14.60
2022-11-07T19:45:59.049Z,14.60
2022-11-07T19:48:25.889Z,14.70
2022-11-07T19:50:52.861Z,14.60
2022-11-07T19:53:21.481Z,14.60
2022-11-07T19:55:48.310Z,14.60
2022-11-07T19:58:15.887Z,14.60
2022-11-07T20:00:43.115Z,14.60
2022-11-07T20:03:10.641Z,14.60
2022-11-07T20:05:40.337Z,14.70
2022-11-07T20:08:07.160Z,14.70
2022-11-07T20:10:34.050Z,14.70
2022-11-07T20:13:00.871Z,14.70
2022-11-07T20:15:28.790Z,14.70
2022-11-07T20:17:55.660Z,14.70
2022-11-07T20:20:22.431Z,14.70
2022-11-07T20:22:49.193Z,14.70
2022-11-07T20:25:16.081Z,14.70
2022-11-07T20:27:42.827Z,14.70
2022-11-07T20:30:15.051Z,14.70
2022-11-07T20:32:45.095Z,14.70
2022-11-07T20:35:11.917Z,14.70
2022-11-07T20:37:38.630Z,14.70
2022-11-07T20:40:06.033Z,14.70
2022-11-07T20:42:32.758Z,14.80
2022-11-07T20:44:59.552Z,14.80
2022-11-07T20:47:26.327Z,14.80
2022-11-07T20:49:53.003Z,14.80
2022-11-07T20:52:19.714Z,14.80
2022-11-07T20:54:46.511Z,14.80
2022-11-07T20:57:13.400Z,14.80
2022-11-07T20:59:41.687Z,14.80
2022-11-07T21:02:11.476Z,14.80
2022-11-07T21:04:56.393Z,14.80
2022-11-07T21:07:25.144Z,14.80
2022-11-07T21:09:52.172Z,14.80
2022-11-07T21:12:19.002Z,14.70
2022-11-07T21:14:46.237Z,14.80
2022-11-07T21:17:13.139Z,14.80
2022-11-07T21:19:40.161Z,14.80
2022-11-07T21:22:07.026Z,14.80
2022-11-07T21:24:33.726Z,14.80
2022-11-07T21:27:00.507Z,14.80
2022-11-07T21:29:29.878Z,14.80
2022-11-07T21:31:57.529Z,14.80
2022-11-07T21:34:24.392Z,14.70
2022-11-07T21:36:51.272Z,14.80
2022-11-07T21:39:18.099Z,14.80
2022-11-07T21:41:44.940Z,14.80
2022-11-07T21:44:14.641Z,14.70
2022-11-07T21:46:41.364Z,14.70
2022-11-07T21:49:08.331Z,14.70
2022-11-07T21:51:36.989Z,14.70
2022-11-07T21:54:04.609Z,14.70
2022-11-07T21:56:32.948Z,14.70
2022-11-07T21:59:01.067Z,14.70
2022-11-07T22:01:28.785Z,14.70
2022-11-07T22:04:12.378Z,14.70
2022-11-07T22:06:45.092Z,14.70
2022-11-07T22:09:16.711Z,14.70
2022-11-07T22:11:43.993Z,14.70
2022-11-07T22:14:14.895Z,14.70
2022-11-07T22:16:41.940Z,14.70
2022-11-07T22:19:12.430Z,14.70
2022-11-07T22:21:40.109Z,14.70
2022-11-07T22:24:07.240Z,14.70
2022-11-07T22:26:34.073Z,14.70
2022-11-07T22:29:00.914Z,14.70
2022-11-07T22:31:30.269Z,14.80
2022-11-07T22:33:58.081Z,14.80
2022-11-07T22:36:25.125Z,14.80
2022-11-07T22:38:51.857Z,14.80
2022-11-07T22:41:20.355Z,14.80
2022-11-07T22:43:47.260Z,14.70
2022-11-07T22:46:18.745Z,14.70
2022-11-07T22:48:45.732Z,14.70
2022-11-07T22:51:20.456Z,14.70
2022-11-07T22:53:47.353Z,14.80
2022-11-07T22:56:18.094Z,14.80
2022-11-07T22:58:45.936Z,14.70
2022-11-07T23:01:16.754Z,14.70
2022-11-07T23:03:43.852Z,14.70
2022-11-07T23:06:10.708Z,14.70
2022-11-07T23:08:37.511Z,14.70
2022-11-07T23:14:00.452Z,14.60
2022-11-07T23:16:32.746Z,14.60
2022-11-07T23:19:00.816Z,14.50
2022-11-07T23:21:27.568Z,14.60
2022-11-07T23:23:54.985Z,14.60
2022-11-07T23:26:21.889Z,14.60
2022-11-07T23:28:48.664Z,14.60
2022-11-07T23:31:15.390Z,14.60
2022-11-07T23:33:44.161Z,14.60
2022-11-07T23:36:15.254Z,14.60
2022-11-07T23:38:42.710Z,14.70
2022-11-07T23:41:11.801Z,14.60
2022-11-07T23:43:38.750Z,14.60
2022-11-07T23:46:24.058Z,14.60
2022-11-07T23:49:14.202Z,14.70
2022-11-07T23:51:42.001Z,14.70
2022-11-07T23:54:27.488Z,14.60
2022-11-07T23:56:55.905Z,14.60
2022-11-07T23:59:41.194Z,14.60
